Portada
METAR-TAF:

METAR-TAF

Aeroports :

Kerteh, Malàisia

latitud: 04-32-15N, longitud: 103-25-36E, altitud: 5 m

Observació

L'informe es va fer fa 1 hora i 19 minuts, a les 11:00 UTC
Vent 4 kt amb direcció variable
Temperatura 30°C
Humitat 84%
Pressió 1008 hPa
Visibilitat 10 km o més
Escasses núvols a una alçada de 1400 ft, Cumulonimbus.

METAR: WMKE 251100Z VRB04KT 9999 FEW014CB 30/27 Q1008

Hora: 20:19 (12:19 UTC)

Pronòstic

L'informe es va fer fa 1 hora i 19 minuts, a les 11:00 UTC
Pronòstic vàlid del 25 a les 12 UTC al 26 a les 12 UTC
Vent 3 kt amb direcció variable
Visibilitat 10 km o més
Escasses núvols a una alçada de 1500 ft
Evolucionant progressivament
l' 25 a les 22 UTC al 26 a les 00 UTC
Escasses núvols a una alçada de 1400 ft
Temporalment
l' 26 a les 04 UTC al 26 a les 07 UTC
Visibilitat: 7000 m
Escasses núvols a una alçada de 1700 ft, Cumulonimbus.
tempesta, pluja

TAF: WMKE 251100Z 2512/2612 VRB03KT 9999 FEW015 BECMG 2522/2600 FEW014 TEMPO 2604/2607 7000 -TSRA FEW017CB

Observacions i pronòstics meteorològics de més de 4000 aeroports (METAR i TAF).

Les estacions disponibles són els punts grocs i vermells al mapa.

Posi el ratolí al punt desitjat per veure el nom de l'estació.

Feu clic per veure les observacions i els pronòstics meteorològics.

Per canviar el mapa: feu clic els botons verds amb una creu de color negre per apropar; al botó verd amb un guió per allunyar la imatge; o en les fletxes verdes per a mapes adjacents.


METAR-TAF: